Time;durP1;ratioP1;P1;durP2;ratioP2;P2;SDS_P1;SDS_P2;PMS_P1;PMS_P2;Temp;Humidity;BMP_temperature;BMP_pressure;BME280_temperature;BME280_humidity;BME280_pressure;Samples;Min_cycle;Max_cycle;Signal;HPM_P1;HPM_P2
2024/01/22 00:02:55;;;;;;;15.27;8.67;;;1.90;1.00;;;;;;10311598;28;20272;-80
2024/01/22 00:08:16;;;;;;;18.20;8.70;;;1.90;1.00;;;;;;10537440;28;20256;-81
2024/01/22 00:13:37;;;;;;;18.23;8.47;;;1.90;1.00;;;;;;10509185;28;20213;-82
2024/01/22 00:18:58;;;;;;;14.93;8.03;;;1.80;1.00;;;;;;10356403;28;20242;-79
2024/01/22 00:24:20;;;;;;;16.03;8.33;;;1.80;1.00;;;;;;10341438;28;20214;-80
2024/01/22 00:29:41;;;;;;;12.07;7.50;;;1.90;1.00;;;;;;10353739;28;20203;-79
2024/01/22 00:35:02;;;;;;;18.97;8.57;;;1.80;1.00;;;;;;10269777;28;20270;-79
2024/01/22 00:40:23;;;;;;;16.47;7.80;;;1.70;1.00;;;;;;10354616;28;20211;-79
2024/01/22 00:45:47;;;;;;;19.17;7.67;;;1.80;1.00;;;;;;10371000;28;20208;-84
2024/01/22 00:51:11;;;;;;;16.27;9.43;;;1.70;1.00;;;;;;10270089;28;20241;-83
2024/01/22 00:56:33;;;;;;;13.70;7.57;;;1.70;1.00;;;;;;10395739;28;20214;-84
2024/01/22 01:01:55;;;;;;;13.37;7.17;;;1.70;1.00;;;;;;10393310;28;20596;-81
2024/01/22 01:07:16;;;;;;;19.53;8.07;;;1.80;1.00;;;;;;10535599;28;20213;-81
2024/01/22 01:12:40;;;;;;;15.23;7.87;;;1.80;1.00;;;;;;10504923;28;20209;-79
2024/01/22 01:18:03;;;;;;;14.67;7.97;;;1.80;1.00;;;;;;10325952;28;20432;-78
2024/01/22 01:23:24;;;;;;;14.70;8.10;;;1.70;1.00;;;;;;10394374;28;20244;-84
2024/01/22 01:28:46;;;;;;;13.67;8.30;;;1.70;1.00;;;;;;10393183;28;20233;-84
2024/01/22 01:34:07;;;;;;;16.20;8.27;;;1.60;1.00;;;;;;10309128;28;20261;-84
2024/01/22 01:39:30;;;;;;;15.97;8.30;;;1.50;1.00;;;;;;10395398;28;20291;-84
2024/01/22 01:44:52;;;;;;;17.87;8.40;;;1.40;1.00;;;;;;10301083;28;20202;-84
2024/01/22 01:50:17;;;;;;;16.40;8.60;;;1.30;1.00;;;;;;10362203;28;20199;-84
2024/01/22 01:55:39;;;;;;;15.53;7.53;;;1.30;1.00;;;;;;10301246;28;20223;-84
2024/01/22 02:01:02;;;;;;;14.80;7.80;;;1.40;1.00;;;;;;10398767;28;20235;-79
2024/01/22 02:06:24;;;;;;;19.93;8.50;;;1.40;1.00;;;;;;10437498;28;20217;-79
2024/01/22 02:11:46;;;;;;;16.63;8.47;;;1.50;1.00;;;;;;10525918;28;20388;-84
2024/01/22 02:17:07;;;;;;;18.30;8.77;;;1.50;1.00;;;;;;10350905;28;20431;-84
2024/01/22 02:22:30;;;;;;;18.73;9.73;;;1.60;1.00;;;;;;10274917;28;20238;-84
2024/01/22 02:27:51;;;;;;;17.03;9.07;;;1.60;1.00;;;;;;10359068;28;20237;-84
2024/01/22 02:33:13;;;;;;;25.33;11.80;;;1.50;1.00;;;;;;10377595;28;20198;-84
2024/01/22 02:38:35;;;;;;;19.23;11.03;;;1.50;1.00;;;;;;10274657;28;20226;-83
2024/01/22 02:43:57;;;;;;;18.00;8.27;;;1.60;1.00;;;;;;10377980;28;20213;-84
2024/01/22 02:49:18;;;;;;;16.30;8.07;;;1.60;1.00;;;;;;10299791;28;20409;-84
2024/01/22 02:54:39;;;;;;;13.40;7.23;;;1.60;1.00;;;;;;10345623;28;20382;-83
2024/01/22 03:00:01;;;;;;;13.30;8.07;;;1.60;1.00;;;;;;10327348;28;20229;-83
2024/01/22 03:05:23;;;;;;;17.40;8.27;;;1.50;1.00;;;;;;10409694;28;20195;-84
2024/01/22 03:10:45;;;;;;;13.53;7.77;;;1.60;1.00;;;;;;10524681;28;20384;-84
2024/01/22 03:16:06;;;;;;;16.07;7.90;;;1.50;1.00;;;;;;10351017;28;20211;-84
2024/01/22 03:21:28;;;;;;;13.43;7.93;;;1.60;1.00;;;;;;10272124;28;20451;-84
2024/01/22 03:26:49;;;;;;;14.57;7.53;;;1.70;1.00;;;;;;10304400;28;20526;-83
2024/01/22 03:32:10;;;;;;;23.60;11.77;;;1.70;1.00;;;;;;10272750;29;20565;-84
2024/01/22 03:37:32;;;;;;;24.23;13.97;;;1.70;19.20;;;;;;10299244;28;20195;-79
2024/01/22 03:42:54;;;;;;;15.97;8.00;;;1.60;45.10;;;;;;10281547;28;20248;-84
2024/01/22 03:48:15;;;;;;;14.80;8.33;;;1.60;97.90;;;;;;10373471;28;20202;-81
2024/01/22 03:53:39;;;;;;;14.97;8.67;;;1.70;52.50;;;;;;10312089;28;20195;-82
2024/01/22 03:59:00;;;;;;;15.60;7.73;;;1.70;99.90;;;;;;10380143;28;20223;-78
2024/01/22 04:04:21;;;;;;;13.37;8.03;;;1.80;99.90;;;;;;10422146;28;20195;-77
2024/01/22 04:09:45;;;;;;;17.13;9.03;;;1.80;99.90;;;;;;10506266;28;20205;-82
2024/01/22 04:15:09;;;;;;;15.67;7.83;;;1.80;99.90;;;;;;10415795;28;20305;-82
2024/01/22 04:20:30;;;;;;;17.63;9.43;;;1.90;99.90;;;;;;10311289;28;20238;-82
2024/01/22 04:25:51;;;;;;;17.43;8.50;;;1.90;99.90;;;;;;10310332;28;20194;-78
2024/01/22 04:31:13;;;;;;;16.47;7.90;;;1.90;99.90;;;;;;10323278;28;20218;-81
2024/01/22 04:36:34;;;;;;;17.13;8.37;;;1.90;99.90;;;;;;10341897;28;20260;-81
2024/01/22 04:41:55;;;;;;;14.57;8.90;;;2.00;99.90;;;;;;10413565;28;20226;-81
2024/01/22 04:47:19;;;;;;;14.67;8.60;;;2.00;99.90;;;;;;10364683;28;20205;-82
2024/01/22 04:52:41;;;;;;;14.97;8.77;;;2.00;99.90;;;;;;10396659;28;20205;-82
2024/01/22 04:58:03;;;;;;;15.00;8.10;;;2.00;99.90;;;;;;10308585;28;20778;-82
2024/01/22 05:03:24;;;;;;;17.60;9.17;;;1.90;99.90;;;;;;10348456;28;20436;-82
2024/01/22 05:08:45;;;;;;;16.00;9.13;;;2.00;99.90;;;;;;10268573;28;20207;-85
2024/01/22 05:14:07;;;;;;;17.77;9.33;;;2.10;99.90;;;;;;10272009;28;20206;-85
2024/01/22 05:19:28;;;;;;;14.67;8.23;;;2.10;99.90;;;;;;10269499;28;20238;-83
2024/01/22 05:24:49;;;;;;;14.93;7.97;;;2.10;99.90;;;;;;10372933;28;20285;-84
2024/01/22 05:30:11;;;;;;;15.37;8.57;;;2.10;1.00;;;;;;10282448;28;20233;-80
2024/01/22 05:35:33;;;;;;;19.20;10.23;;;2.00;1.00;;;;;;10269473;29;20194;-83
2024/01/22 05:40:54;;;;;;;18.97;9.60;;;2.00;1.00;;;;;;10267658;28;20532;-85
2024/01/22 05:46:16;;;;;;;15.43;7.93;;;2.00;1.00;;;;;;10273695;28;20430;-80
2024/01/22 05:51:37;;;;;;;20.30;10.07;;;1.90;1.00;;;;;;10338993;28;20196;-81
2024/01/22 05:56:58;;;;;;;17.47;9.93;;;1.90;1.00;;;;;;10285311;28;20202;-84
2024/01/22 06:02:19;;;;;;;19.47;10.00;;;2.00;1.00;;;;;;10392631;28;20221;-84
2024/01/22 06:07:41;;;;;;;25.80;13.23;;;1.90;1.00;;;;;;10483708;28;20244;-84
2024/01/22 06:13:02;;;;;;;106.50;41.40;;;1.90;1.00;;;;;;10462753;28;20252;-83
2024/01/22 06:18:24;;;;;;;83.33;32.40;;;1.90;1.00;;;;;;10339912;28;20231;-85
2024/01/22 06:23:46;;;;;;;55.00;23.33;;;2.00;1.00;;;;;;10267775;28;20274;-82
2024/01/22 06:29:13;;;;;;;40.67;18.87;;;2.10;1.00;;;;;;10351541;28;20566;-79
2024/01/22 06:34:36;;;;;;;31.93;15.03;;;2.10;1.00;;;;;;10370306;28;20393;-79
2024/01/22 06:40:00;;;;;;;35.83;15.97;;;2.10;1.00;;;;;;10377625;28;20262;-79
2024/01/22 06:45:21;;;;;;;17.53;10.53;;;2.10;1.00;;;;;;10382982;28;20239;-81
2024/01/22 06:50:42;;;;;;;24.70;12.80;;;2.10;1.00;;;;;;10306759;28;20213;-82
2024/01/22 06:56:07;;;;;;;57.83;24.10;;;2.20;1.00;;;;;;10381543;28;20256;-79
2024/01/22 07:01:28;;;;;;;29.53;15.83;;;2.20;1.00;;;;;;10331327;28;20225;-86
2024/01/22 07:06:51;;;;;;;22.07;12.47;;;2.20;1.00;;;;;;10452683;28;20191;-85
2024/01/22 07:12:12;;;;;;;70.87;33.47;;;2.30;1.00;;;;;;10506536;28;20207;-80
2024/01/22 07:17:33;;;;;;;30.57;14.43;;;2.30;1.00;;;;;;10288404;28;20397;-79
2024/01/22 07:22:55;;;;;;;81.23;25.10;;;2.30;1.00;;;;;;10343761;28;20229;-80
2024/01/22 07:28:16;;;;;;;59.20;20.37;;;2.30;1.00;;;;;;10382918;28;20186;-84
2024/01/22 07:33:37;;;;;;;34.00;14.97;;;2.50;1.00;;;;;;10311649;28;20217;-83
2024/01/22 07:38:59;;;;;;;25.37;12.67;;;2.60;1.00;;;;;;10312088;28;20211;-81
2024/01/22 07:44:20;;;;;;;20.60;10.10;;;2.70;1.00;;;;;;10400047;28;20214;-81
2024/01/22 07:49:41;;;;;;;22.60;9.93;;;2.60;1.00;;;;;;10272034;28;20202;-79
2024/01/22 07:55:05;;;;;;;24.23;12.30;;;2.80;1.00;;;;;;10273688;28;20468;-80
2024/01/22 08:00:27;;;;;;;20.73;11.00;;;2.80;1.00;;;;;;10311197;28;20238;-82
2024/01/22 08:05:48;;;;;;;13.27;7.90;;;2.90;1.00;;;;;;10477643;28;20198;-87
2024/01/22 08:11:10;;;;;;;17.83;8.83;;;3.00;1.00;;;;;;10362550;28;20207;-86
2024/01/22 08:16:34;;;;;;;16.33;8.67;;;2.90;21.80;;;;;;10371375;28;20195;-82
2024/01/22 08:21:59;;;;;;;13.50;8.20;;;3.00;99.90;;;;;;10302006;28;20243;-79
2024/01/22 08:27:20;;;;;;;72.93;19.70;;;3.00;1.00;;;;;;10305286;28;20556;-80
2024/01/22 08:32:46;;;;;;;27.83;15.73;;;3.00;99.90;;;;;;10373573;28;20265;-85
2024/01/22 08:38:08;;;;;;;10.97;7.23;;;3.10;1.00;;;;;;10296763;28;20283;-84
2024/01/22 08:43:30;;;;;;;20.37;10.03;;;3.20;99.90;;;;;;10378677;28;20255;-79
2024/01/22 08:48:51;;;;;;;20.10;10.73;;;3.30;99.90;;;;;;10295952;28;20233;-79
2024/01/22 08:54:12;;;;;;;17.40;8.63;;;3.20;1.00;;;;;;10289987;28;20207;-83
2024/01/22 08:59:37;;;;;;;22.83;11.83;;;3.20;1.00;;;;;;10289467;28;20234;-81
2024/01/22 09:04:59;;;;;;;20.93;11.63;;;3.10;1.00;;;;;;10382818;28;20191;-79
2024/01/22 09:10:21;;;;;;;16.17;8.47;;;2.90;99.90;;;;;;10425397;28;20259;-79
2024/01/22 09:15:45;;;;;;;22.93;11.43;;;3.00;92.10;;;;;;10329338;28;20218;-81
2024/01/22 09:21:08;;;;;;;21.20;11.20;;;3.00;1.00;;;;;;10415687;28;20241;-80
2024/01/22 09:26:29;;;;;;;29.17;13.63;;;3.10;1.00;;;;;;10409792;28;20205;-79
2024/01/22 09:31:51;;;;;;;23.30;11.37;;;3.10;1.00;;;;;;10339806;28;20224;-78
2024/01/22 09:37:13;;;;;;;28.33;13.40;;;3.20;1.00;;;;;;10356508;28;20273;-80
2024/01/22 09:42:37;;;;;;;21.47;12.23;;;3.20;1.00;;;;;;10289225;28;20321;-78
2024/01/22 09:48:00;;;;;;;17.80;11.33;;;3.20;1.00;;;;;;10269050;28;20214;-77
2024/01/22 09:53:24;;;;;;;14.80;8.83;;;3.20;1.00;;;;;;10387075;28;20217;-77
2024/01/22 09:58:52;;;;;;;35.43;17.23;;;3.30;99.90;;;;;;10340150;28;20477;-81
2024/01/22 10:04:14;;;;;;;42.83;18.10;;;3.20;1.00;;;;;;10417762;28;20206;-83
2024/01/22 10:09:35;;;;;;;65.60;15.90;;;3.30;1.00;;;;;;10457835;28;20266;-88
2024/01/22 10:14:56;;;;;;;19.80;10.63;;;3.30;1.00;;;;;;10412554;28;20198;-84
2024/01/22 10:20:22;;;;;;;12.23;6.63;;;3.30;99.90;;;;;;10327918;28;20258;-90
2024/01/22 10:25:43;;;;;;;10.97;6.87;;;3.20;1.00;;;;;;10366593;28;20436;-84
2024/01/22 10:31:05;;;;;;;14.80;7.63;;;3.20;1.00;;;;;;10393792;28;20274;-80
2024/01/22 10:36:27;;;;;;;17.90;8.37;;;3.30;1.00;;;;;;10520893;28;20214;-82
2024/01/22 10:41:48;;;;;;;15.20;8.27;;;3.40;99.90;;;;;;10366447;28;20242;-79
2024/01/22 10:47:14;;;;;;;14.67;8.30;;;3.40;99.90;;;;;;10378320;28;20216;-82
2024/01/22 10:52:37;;;;;;;16.30;7.63;;;3.40;98.10;;;;;;10369156;28;20278;-78
2024/01/22 10:58:01;;;;;;;19.50;8.33;;;3.40;99.90;;;;;;10283833;28;20275;-77
2024/01/22 11:03:25;;;;;;;15.40;8.13;;;3.50;1.00;;;;;;10265817;28;20235;-80
2024/01/22 11:08:50;;;;;;;16.43;7.67;;;3.40;99.90;;;;;;10318565;28;20302;-79
2024/01/22 11:14:11;;;;;;;15.17;7.97;;;3.50;1.00;;;;;;10306226;28;20253;-78
2024/01/22 11:19:33;;;;;;;14.67;7.53;;;3.50;15.80;;;;;;10291466;28;20242;-84
2024/01/22 11:25:12;;;;;;;21.37;9.30;;;3.60;99.90;;;;;;10291297;28;20530;-82
2024/01/22 11:30:41;;;;;;;14.03;7.70;;;3.70;1.00;;;;;;10304950;28;20199;-82
2024/01/22 11:36:03;;;;;;;18.53;7.97;;;3.60;1.00;;;;;;10307255;28;20199;-83
2024/01/22 11:41:32;;;;;;;14.00;7.57;;;3.60;1.00;;;;;;10389926;28;20239;-83
2024/01/22 11:47:04;;;;;;;17.00;8.93;;;3.60;1.00;;;;;;10363367;28;20485;-84
2024/01/22 11:52:26;;;;;;;13.90;6.93;;;3.70;1.00;;;;;;10356457;28;20208;-80
2024/01/22 11:57:49;;;;;;;19.10;9.33;;;3.70;28.00;;;;;;10322102;28;20278;-83
2024/01/22 12:03:11;;;;;;;19.67;9.70;;;3.70;99.90;;;;;;10292371;28;20288;-79
2024/01/22 12:08:35;;;;;;;10.50;6.47;;;3.80;1.00;;;;;;10346251;28;20221;-78
2024/01/22 12:13:56;;;;;;;10.50;6.20;;;3.80;1.00;;;;;;10318636;28;20244;-80
2024/01/22 12:19:18;;;;;;;11.03;7.50;;;3.80;1.00;;;;;;10333583;28;20241;-78
2024/01/22 12:24:40;;;;;;;11.87;6.57;;;3.90;61.30;;;;;;10347307;28;20205;-81
2024/01/22 12:30:05;;;;;;;13.40;6.80;;;3.80;1.00;;;;;;10312277;28;20283;-86
2024/01/22 12:35:26;;;;;;;13.63;6.93;;;3.90;1.00;;;;;;10293108;28;20204;-87
2024/01/22 12:40:57;;;;;;;18.53;7.47;;;3.90;99.90;;;;;;10388305;28;20309;-83
2024/01/22 12:46:20;;;;;;;11.53;6.87;;;3.90;1.00;;;;;;10387626;28;20436;-80
2024/01/22 12:51:41;;;;;;;13.90;6.37;;;4.00;99.90;;;;;;10321949;28;20214;-86
2024/01/22 12:57:03;;;;;;;9.97;5.27;;;4.00;1.00;;;;;;10370785;28;20255;-81
2024/01/22 13:02:24;;;;;;;9.77;5.43;;;4.00;1.00;;;;;;10360257;28;20232;-81
2024/01/22 13:07:45;;;;;;;7.37;5.20;;;4.10;1.00;;;;;;10493831;28;20502;-80
2024/01/22 13:13:07;;;;;;;12.10;6.23;;;4.10;99.90;;;;;;10338143;28;20203;-81
2024/01/22 13:18:28;;;;;;;10.20;6.17;;;4.10;1.00;;;;;;10289161;28;20235;-78
2024/01/22 13:23:53;;;;;;;9.13;5.37;;;4.20;1.00;;;;;;10303176;28;20541;-81
2024/01/22 13:29:17;;;;;;;12.90;7.07;;;4.30;1.00;;;;;;10298641;28;20222;-82
2024/01/22 13:34:39;;;;;;;12.47;7.23;;;4.20;99.90;;;;;;10286401;28;20273;-76
2024/01/22 13:40:01;;;;;;;19.37;9.97;;;4.20;1.00;;;;;;10316891;28;20223;-75
2024/01/22 13:45:27;;;;;;;14.57;8.27;;;4.20;99.90;;;;;;10342578;28;20212;-84
2024/01/22 13:50:52;;;;;;;15.17;6.73;;;4.20;1.00;;;;;;10385545;28;20206;-79
2024/01/22 13:56:14;;;;;;;19.83;8.80;;;4.20;1.00;;;;;;10296806;28;20233;-81
2024/01/22 14:01:37;;;;;;;14.57;7.93;;;4.20;1.00;;;;;;10311621;28;20230;-81
2024/01/22 14:06:58;;;;;;;12.83;7.57;;;4.20;1.00;;;;;;10479154;28;20180;-80
2024/01/22 14:12:21;;;;;;;20.30;10.17;;;4.20;1.00;;;;;;10321886;28;20207;-80
2024/01/22 14:17:43;;;;;;;12.30;7.87;;;4.20;1.00;;;;;;10351988;28;20484;-84
2024/01/22 14:23:07;;;;;;;20.87;9.63;;;4.30;99.90;;;;;;10305711;28;20223;-80
2024/01/22 14:28:29;;;;;;;18.37;10.53;;;4.30;99.90;;;;;;10325081;28;20415;-79
2024/01/22 14:33:50;;;;;;;27.80;13.57;;;4.20;1.00;;;;;;10310744;28;20432;-80
2024/01/22 14:39:13;;;;;;;23.43;12.03;;;4.20;1.00;;;;;;10345581;28;20200;-82
2024/01/22 14:44:34;;;;;;;19.03;11.83;;;4.20;1.00;;;;;;10327044;28;20303;-86
2024/01/22 14:49:55;;;;;;;18.53;11.60;;;4.20;1.00;;;;;;10305796;28;20383;-79
2024/01/22 14:55:18;;;;;;;16.90;8.70;;;4.20;1.00;;;;;;10377096;28;20210;-83
2024/01/22 15:00:40;;;;;;;19.90;10.67;;;4.30;1.00;;;;;;10276677;28;20220;-80
2024/01/22 15:06:03;;;;;;;18.70;10.23;;;4.30;1.00;;;;;;10379930;28;20226;-81
2024/01/22 15:11:25;;;;;;;27.13;14.27;;;4.30;1.00;;;;;;10305489;28;20279;-80
2024/01/22 15:16:49;;;;;;;18.60;10.57;;;4.40;1.00;;;;;;10391754;28;20195;-79
2024/01/22 15:22:12;;;;;;;16.03;8.73;;;4.40;1.00;;;;;;10313467;28;20530;-79
2024/01/22 15:27:36;;;;;;;12.43;7.93;;;4.40;1.00;;;;;;10295154;28;20199;-81
2024/01/22 15:32:57;;;;;;;17.40;9.43;;;4.50;1.00;;;;;;10306075;28;20218;-79
2024/01/22 15:38:21;;;;;;;17.63;8.97;;;4.50;1.00;;;;;;10303868;28;20203;-80
2024/01/22 15:43:43;;;;;;;11.17;6.23;;;4.50;1.00;;;;;;10305594;28;20235;-78
2024/01/22 15:49:05;;;;;;;14.70;8.80;;;4.60;1.00;;;;;;10405379;28;20452;-77
2024/01/22 15:54:26;;;;;;;16.23;7.70;;;4.50;1.00;;;;;;10375936;28;20219;-80
2024/01/22 15:59:47;;;;;;;15.73;9.57;;;4.50;1.00;;;;;;10345502;28;20223;-82
2024/01/22 16:05:09;;;;;;;17.97;9.07;;;4.50;1.00;;;;;;10284108;28;20214;-80
2024/01/22 16:10:31;;;;;;;18.23;8.00;;;4.50;1.00;;;;;;10305842;28;20217;-84
2024/01/22 16:15:53;;;;;;;15.73;9.23;;;4.60;1.00;;;;;;10316452;28;20250;-80
2024/01/22 16:21:15;;;;;;;14.13;9.10;;;4.50;1.00;;;;;;10308620;28;20235;-85
2024/01/22 16:26:40;;;;;;;10.67;6.63;;;4.50;1.00;;;;;;10309402;28;20205;-85
2024/01/22 16:32:01;;;;;;;14.90;7.40;;;4.50;1.00;;;;;;10296248;28;20386;-80
2024/01/22 16:37:22;;;;;;;31.10;14.90;;;4.40;1.00;;;;;;10335888;28;20384;-80
2024/01/22 16:42:44;;;;;;;15.23;8.80;;;4.40;59.40;;;;;;10385019;28;20515;-79
2024/01/22 16:48:05;;;;;;;12.47;6.73;;;4.40;37.70;;;;;;10419114;28;20216;-79
2024/01/22 16:53:26;;;;;;;16.80;9.17;;;4.40;99.90;;;;;;10307518;28;20275;-79
2024/01/22 16:58:48;;;;;;;23.20;11.80;;;4.40;99.90;;;;;;10308756;28;20490;-81
2024/01/22 17:04:14;;;;;;;21.67;13.07;;;4.40;99.90;;;;;;10308404;28;20228;-82
2024/01/22 17:09:36;;;;;;;13.33;8.30;;;4.40;99.90;;;;;;10386143;28;20207;-79
2024/01/22 17:14:57;;;;;;;21.47;11.03;;;4.40;99.90;;;;;;10426288;28;20189;-78
2024/01/22 17:20:18;;;;;;;27.37;14.07;;;4.50;99.90;;;;;;10517433;28;20243;-80
2024/01/22 17:25:41;;;;;;;24.80;12.00;;;4.40;88.40;;;;;;10518637;28;20193;-79
2024/01/22 17:31:04;;;;;;;22.90;10.47;;;4.40;99.90;;;;;;10518310;28;20494;-78
2024/01/22 17:36:26;;;;;;;38.43;16.80;;;4.40;64.60;;;;;;10389479;28;20279;-79
2024/01/22 17:41:47;;;;;;;25.03;10.80;;;4.40;83.50;;;;;;10309353;28;20297;-78
2024/01/22 17:47:13;;;;;;;21.90;10.20;;;4.50;64.90;;;;;;10297952;28;20255;-79
2024/01/22 17:52:37;;;;;;;44.50;15.73;;;4.50;10.80;;;;;;10281145;28;20211;-79
2024/01/22 17:58:00;;;;;;;32.80;12.30;;;4.40;19.00;;;;;;10368341;28;20201;-78
2024/01/22 18:03:23;;;;;;;21.77;10.10;;;4.50;1.00;;;;;;10381676;28;20235;-79
2024/01/22 18:08:44;;;;;;;32.50;13.50;;;4.40;99.40;;;;;;10391482;28;20240;-79
2024/01/22 18:14:08;;;;;;;39.73;14.33;;;4.30;93.10;;;;;;10408917;28;20204;-79
2024/01/22 18:19:29;;;;;;;43.20;14.87;;;4.30;97.40;;;;;;10520617;28;20229;-84
2024/01/22 18:24:51;;;;;;;23.50;11.07;;;4.40;70.20;;;;;;10518107;28;20423;-81
2024/01/22 18:30:12;;;;;;;18.80;10.10;;;4.40;33.60;;;;;;10506417;28;20430;-82
2024/01/22 18:35:35;;;;;;;25.80;11.37;;;4.40;14.00;;;;;;10510048;28;20204;-84
2024/01/22 18:40:56;;;;;;;22.27;11.73;;;4.40;1.00;;;;;;10273880;28;20226;-84
2024/01/22 18:46:18;;;;;;;15.47;9.37;;;4.40;1.00;;;;;;10306490;28;20206;-84
2024/01/22 18:51:41;;;;;;;27.30;14.43;;;4.30;15.20;;;;;;10305687;28;20204;-79
2024/01/22 18:57:04;;;;;;;17.77;8.67;;;4.40;1.70;;;;;;10278101;28;20278;-85
2024/01/22 19:02:26;;;;;;;17.47;9.13;;;4.40;1.00;;;;;;10370936;28;20218;-84
2024/01/22 19:07:50;;;;;;;17.57;9.23;;;4.40;21.90;;;;;;10354539;28;20483;-84
2024/01/22 19:13:12;;;;;;;18.37;9.07;;;4.40;47.30;;;;;;10326911;28;20271;-82
2024/01/22 19:18:33;;;;;;;18.97;9.73;;;4.40;99.90;;;;;;10481023;28;20436;-79
2024/01/22 19:23:55;;;;;;;18.10;9.73;;;4.40;97.70;;;;;;10316374;28;20239;-84
2024/01/22 19:29:16;;;;;;;12.87;7.77;;;4.30;99.90;;;;;;10312656;28;20219;-84
2024/01/22 19:34:38;;;;;;;13.63;8.20;;;4.40;99.90;;;;;;10313251;28;20223;-84
2024/01/22 19:40:01;;;;;;;17.70;9.77;;;4.40;99.90;;;;;;10338801;28;20195;-83
2024/01/22 19:45:22;;;;;;;19.57;8.40;;;4.40;99.90;;;;;;10288074;28;20203;-84
2024/01/22 19:50:48;;;;;;;20.20;9.87;;;4.40;99.90;;;;;;10304918;28;20213;-84
2024/01/22 19:56:09;;;;;;;17.33;8.70;;;4.40;99.90;;;;;;10272692;28;20212;-81
2024/01/22 20:01:32;;;;;;;24.70;11.70;;;4.40;99.90;;;;;;10271290;28;20231;-84
2024/01/22 20:06:54;;;;;;;16.63;9.10;;;4.50;99.90;;;;;;10375771;28;20210;-83
2024/01/22 20:12:15;;;;;;;12.00;7.73;;;4.50;99.90;;;;;;10270773;29;20196;-79
2024/01/22 20:17:36;;;;;;;19.90;10.53;;;4.50;99.90;;;;;;10436019;28;20226;-79
2024/01/22 20:22:57;;;;;;;26.13;13.33;;;4.50;99.90;;;;;;10315747;28;20264;-78
2024/01/22 20:28:20;;;;;;;18.73;9.90;;;4.60;99.90;;;;;;10368450;28;20233;-78
2024/01/22 20:33:41;;;;;;;22.53;11.33;;;4.60;99.90;;;;;;10331310;28;20394;-78
2024/01/22 20:39:03;;;;;;;42.40;21.40;;;4.70;99.90;;;;;;10336514;28;20317;-79
2024/01/22 20:44:24;;;;;;;31.40;11.60;;;4.70;99.90;;;;;;10311537;28;20230;-77
2024/01/22 20:49:45;;;;;;;24.00;9.30;;;4.70;99.90;;;;;;10309493;28;20491;-78
2024/01/22 20:55:07;;;;;;;19.17;8.77;;;4.70;99.90;;;;;;10308368;28;20196;-85
2024/01/22 21:00:28;;;;;;;18.43;8.50;;;4.80;99.90;;;;;;10281155;28;20248;-82
2024/01/22 21:05:50;;;;;;;20.60;10.00;;;4.80;99.90;;;;;;10388812;28;20196;-83
2024/01/22 21:11:11;;;;;;;15.43;7.80;;;4.80;99.90;;;;;;10309151;28;20212;-83
2024/01/22 21:16:32;;;;;;;13.83;6.23;;;4.80;99.90;;;;;;10424496;28;20218;-83
2024/01/22 21:21:54;;;;;;;13.10;7.83;;;4.80;99.90;;;;;;10519025;28;20240;-84
2024/01/22 21:27:18;;;;;;;10.33;6.27;;;4.90;99.90;;;;;;10519343;28;20200;-85
2024/01/22 21:32:39;;;;;;;10.73;5.63;;;4.90;99.90;;;;;;10519746;28;20196;-84
2024/01/22 21:38:00;;;;;;;10.47;5.93;;;4.80;99.90;;;;;;10504042;28;20244;-84
2024/01/22 21:43:23;;;;;;;13.03;5.87;;;4.90;99.90;;;;;;10285024;28;20281;-83
2024/01/22 21:48:44;;;;;;;15.83;6.50;;;4.90;99.90;;;;;;10409799;28;20258;-84
2024/01/22 21:54:08;;;;;;;15.87;6.50;;;4.90;99.90;;;;;;10308190;28;20232;-84
2024/01/22 21:59:30;;;;;;;17.47;6.67;;;5.00;99.90;;;;;;10309044;28;20199;-83
2024/01/22 22:04:51;;;;;;;15.67;6.13;;;4.90;99.90;;;;;;10312359;28;20528;-83
2024/01/22 22:10:13;;;;;;;15.23;6.63;;;4.90;99.90;;;;;;10297808;28;20223;-83
2024/01/22 22:15:34;;;;;;;11.70;5.97;;;4.80;99.90;;;;;;10305671;28;20492;-80
2024/01/22 22:20:56;;;;;;;14.07;6.57;;;4.70;99.90;;;;;;10314032;28;20240;-84
2024/01/22 22:26:17;;;;;;;21.83;6.83;;;4.80;99.90;;;;;;10314256;28;20219;-84
2024/01/22 22:31:39;;;;;;;13.63;6.20;;;4.80;99.90;;;;;;10314297;28;20394;-84
2024/01/22 22:37:00;;;;;;;11.57;5.73;;;4.80;99.90;;;;;;10314938;28;20383;-83
2024/01/22 22:42:21;;;;;;;14.53;6.37;;;4.80;99.90;;;;;;10299444;28;20307;-80
2024/01/22 22:47:43;;;;;;;13.87;5.57;;;4.80;99.90;;;;;;10314792;28;20230;-84
2024/01/22 22:53:04;;;;;;;16.97;5.87;;;4.80;99.90;;;;;;10399219;28;20392;-84
2024/01/22 22:58:28;;;;;;;14.07;5.40;;;4.70;99.90;;;;;;10300333;28;20197;-84
2024/01/22 23:03:50;;;;;;;9.93;5.10;;;4.70;99.90;;;;;;10312940;28;20227;-82
2024/01/22 23:09:12;;;;;;;12.67;5.30;;;4.60;99.90;;;;;;10374227;28;20288;-83
2024/01/22 23:14:34;;;;;;;11.23;4.97;;;4.60;99.90;;;;;;10376480;28;20201;-84
2024/01/22 23:19:55;;;;;;;12.90;5.27;;;4.50;99.90;;;;;;10307360;28;20433;-79
2024/01/22 23:25:17;;;;;;;17.50;6.57;;;4.50;99.90;;;;;;10299180;28;20231;-83
2024/01/22 23:30:39;;;;;;;18.43;6.27;;;4.50;99.90;;;;;;10313669;28;20224;-84
2024/01/22 23:36:00;;;;;;;11.87;4.87;;;4.50;99.90;;;;;;10312474;28;20196;-83
2024/01/22 23:41:22;;;;;;;18.57;5.83;;;4.60;99.90;;;;;;10312715;28;20228;-84
2024/01/22 23:46:43;;;;;;;11.83;4.87;;;4.60;1.00;;;;;;10312166;28;20195;-84
2024/01/22 23:52:04;;;;;;;13.13;4.63;;;4.50;1.00;;;;;;10357110;28;20201;-84
2024/01/22 23:57:25;;;;;;;13.33;4.20;;;4.50;1.00;;;;;;10272881;28;20197;-85
